createdAt,value
2023-01-29T00:01:58.684Z,102956.81
2023-01-29T00:04:25.413Z,102957.69
2023-01-29T00:06:51.784Z,102943.38
2023-01-29T00:09:18.794Z,102941.53
2023-01-29T00:11:45.259Z,102936.22
2023-01-29T00:14:11.939Z,102941.66
2023-01-29T00:16:38.501Z,102947.91
2023-01-29T00:19:05.115Z,102942.53
2023-01-29T00:21:32.258Z,102941.66
2023-01-29T00:23:59.810Z,102939.91
2023-01-29T00:26:27.054Z,102933.63
2023-01-29T00:28:53.561Z,102932.75
2023-01-29T00:31:22.724Z,102930.94
2023-01-29T00:33:49.807Z,102926.47
2023-01-29T00:36:18.259Z,102938.06
2023-01-29T00:38:46.445Z,102927.34
2023-01-29T00:41:34.097Z,102930.03
2023-01-29T00:44:20.110Z,102928.22
2023-01-29T00:46:46.617Z,102925.56
2023-01-29T00:49:13.107Z,102924.72
2023-01-29T00:51:39.756Z,102923.75
2023-01-29T00:54:06.931Z,102929.09
2023-01-29T00:56:36.382Z,102946.06
2023-01-29T00:59:03.749Z,102933.59
2023-01-29T01:01:48.828Z,102930.91
2023-01-29T01:04:15.264Z,102929.09
2023-01-29T01:06:42.666Z,102938.06
2023-01-29T01:09:29.603Z,102938.94
2023-01-29T01:11:56.105Z,102938.94
2023-01-29T01:14:22.909Z,102938.06
2023-01-29T01:16:49.624Z,102933.63
2023-01-29T01:19:16.356Z,102934.50
2023-01-29T01:21:48.180Z,102932.75
2023-01-29T01:24:15.191Z,102926.47
2023-01-29T01:26:41.838Z,102925.56
2023-01-29T01:29:09.110Z,102923.75
2023-01-29T01:31:35.767Z,102926.44
2023-01-29T01:34:02.231Z,102929.09
2023-01-29T01:36:28.620Z,102913.94
2023-01-29T01:38:55.049Z,102916.56
2023-01-29T01:41:22.894Z,102904.09
2023-01-29T01:43:57.758Z,102908.47
2023-01-29T01:46:25.682Z,102912.88
2023-01-29T01:48:58.630Z,102912.94
2023-01-29T01:51:27.662Z,102918.31
2023-01-29T01:54:31.583Z,102927.25
2023-01-29T01:57:15.788Z,102922.88
2023-01-29T01:59:54.360Z,102916.66
2023-01-29T02:02:40.167Z,102918.41
2023-01-29T02:05:26.230Z,102915.72
2023-01-29T02:08:11.176Z,102913.00
2023-01-29T02:10:46.251Z,102918.34
2023-01-29T02:13:16.316Z,102915.66
2023-01-29T02:15:46.819Z,102919.28
2023-01-29T02:18:14.620Z,102907.66
2023-01-29T02:20:48.567Z,102913.88
2023-01-29T02:23:27.069Z,102908.56
2023-01-29T02:26:20.587Z,102898.78
2023-01-29T02:29:22.186Z,102898.72
2023-01-29T02:32:00.256Z,102897.84
2023-01-29T02:35:27.725Z,102885.41
2023-01-29T02:38:21.726Z,102886.28
2023-01-29T02:41:15.174Z,102886.25
2023-01-29T02:44:08.447Z,102891.63
2023-01-29T02:46:37.536Z,102889.84
2023-01-29T02:49:33.657Z,102889.88
2023-01-29T02:52:21.134Z,102884.47
2023-01-29T02:55:02.796Z,102871.06
2023-01-29T02:57:34.609Z,102873.75
2023-01-29T03:00:18.848Z,102871.06
2023-01-29T03:02:56.339Z,102873.75
2023-01-29T03:05:35.175Z,102865.69
2023-01-29T03:08:09.091Z,102855.00
2023-01-29T03:10:40.870Z,102851.34
2023-01-29T03:13:14.569Z,102848.66
2023-01-29T03:15:46.969Z,102852.28
2023-01-29T03:18:26.078Z,102844.25
2023-01-29T03:20:58.539Z,102846.06
2023-01-29T03:23:50.197Z,102847.78
2023-01-29T03:26:39.364Z,102835.28
2023-01-29T03:29:26.293Z,102846.00
2023-01-29T03:32:07.755Z,102843.31
2023-01-29T03:34:51.692Z,102837.84
2023-01-29T03:37:29.982Z,102837.84
2023-01-29T03:39:56.547Z,102836.97
2023-01-29T03:43:20.226Z,102835.28
2023-01-29T03:46:02.075Z,102835.28
2023-01-29T03:48:32.713Z,102830.81
2023-01-29T03:51:10.338Z,102827.25
2023-01-29T03:53:39.644Z,102829.06
2023-01-29T03:56:16.052Z,102822.81
2023-01-29T03:59:17.464Z,102829.06
2023-01-29T04:01:55.087Z,102820.09
2023-01-29T04:04:26.909Z,102826.31
2023-01-29T04:06:58.331Z,102818.28
2023-01-29T04:09:48.651Z,102823.69
2023-01-29T04:12:20.064Z,102824.56
2023-01-29T04:14:48.598Z,102814.78
2023-01-29T04:17:21.881Z,102817.47
2023-01-29T04:19:48.444Z,102803.16
2023-01-29T04:22:23.862Z,102791.56
2023-01-29T04:24:51.236Z,102784.38
2023-01-29T04:27:33.113Z,102781.72
2023-01-29T04:30:11.731Z,102777.22
2023-01-29T04:32:48.055Z,102774.63
2023-01-29T04:35:17.175Z,102771.03
2023-01-29T04:38:06.371Z,102769.28
2023-01-29T04:40:43.529Z,102777.25
2023-01-29T04:43:20.705Z,102771.03
2023-01-29T04:46:13.737Z,102779.91
2023-01-29T04:49:06.051Z,102787.03
2023-01-29T04:51:37.341Z,102774.47
2023-01-29T04:54:25.718Z,102776.22
2023-01-29T04:56:58.881Z,102774.34
2023-01-29T04:59:32.656Z,102767.28
2023-01-29T05:02:02.298Z,102761.09
2023-01-29T05:04:33.540Z,102762.91
2023-01-29T05:07:06.637Z,102768.19
2023-01-29T05:09:34.765Z,102769.09
2023-01-29T05:12:03.057Z,102769.13
2023-01-29T05:14:32.979Z,102770.94
2023-01-29T05:17:05.770Z,102776.25
2023-01-29T05:19:32.236Z,102770.00
2023-01-29T05:21:59.365Z,102769.13
2023-01-29T05:24:26.714Z,102775.38
2023-01-29T05:27:13.060Z,102768.28
2023-01-29T05:29:46.054Z,102762.03
2023-01-29T05:32:12.880Z,102761.13
2023-01-29T05:34:39.437Z,102758.50
2023-01-29T05:37:05.904Z,102759.34
2023-01-29T05:39:32.809Z,102768.28
2023-01-29T05:41:59.294Z,102760.28
2023-01-29T05:44:25.855Z,102752.28
2023-01-29T05:46:52.335Z,102746.06
2023-01-29T05:49:20.469Z,102733.59
2023-01-29T05:51:46.884Z,102726.38
2023-01-29T05:54:13.873Z,102710.34
2023-01-29T05:56:40.453Z,102705.88
2023-01-29T05:59:07.377Z,102690.69
2023-01-29T06:01:33.867Z,102680.91
2023-01-29T06:04:00.382Z,102686.25
2023-01-29T06:06:26.885Z,102687.16
2023-01-29T06:08:53.319Z,102688.88
2023-01-29T06:11:20.589Z,102689.75
2023-01-29T06:13:47.878Z,102695.97
2023-01-29T06:16:14.960Z,102696.84
2023-01-29T06:18:42.386Z,102695.00
2023-01-29T06:21:11.674Z,102695.88
2023-01-29T06:23:38.252Z,102686.91
2023-01-29T06:26:07.501Z,102693.22
2023-01-29T06:28:34.400Z,102689.66
2023-01-29T06:31:22.052Z,102687.00
2023-01-29T06:33:51.991Z,102678.06
2023-01-29T06:36:18.496Z,102677.13
2023-01-29T06:38:44.884Z,102675.41
2023-01-29T06:41:19.471Z,102678.09
2023-01-29T06:43:45.848Z,102677.22
2023-01-29T06:46:12.528Z,102681.63
2023-01-29T06:48:39.253Z,102690.53
2023-01-29T06:51:08.032Z,102680.69
2023-01-29T06:53:36.567Z,102682.50
2023-01-29T06:56:03.871Z,102684.28
2023-01-29T06:58:30.512Z,102689.66
2023-01-29T07:01:08.045Z,102686.91
2023-01-29T07:03:35.005Z,102677.13
2023-01-29T07:06:01.578Z,102682.41
2023-01-29T07:08:28.497Z,102677.13
2023-01-29T07:11:04.662Z,102680.69
2023-01-29T07:13:31.054Z,102672.66
2023-01-29T07:16:01.841Z,102674.38
2023-01-29T07:18:29.781Z,102674.38
2023-01-29T07:20:56.816Z,102669.06
2023-01-29T07:23:23.816Z,102669.97
2023-01-29T07:25:51.043Z,102662.00
2023-01-29T07:28:18.676Z,102662.88
2023-01-29T07:30:45.088Z,102652.16
2023-01-29T07:33:11.811Z,102659.25
2023-01-29T07:35:40.440Z,102659.19
2023-01-29T07:38:08.092Z,102657.44
2023-01-29T07:40:34.541Z,102661.84
2023-01-29T07:43:03.151Z,102653.88
2023-01-29T07:45:30.542Z,102647.56
2023-01-29T07:47:57.536Z,102644.84
2023-01-29T07:50:25.359Z,102646.66
2023-01-29T07:52:53.812Z,102652.91
2023-01-29T07:55:20.690Z,102646.53
2023-01-29T07:57:48.095Z,102642.13
2023-01-29T08:00:15.438Z,102644.78
2023-01-29T08:02:42.151Z,102654.56
2023-01-29T08:05:09.044Z,102645.56
2023-01-29T08:07:35.468Z,102650.00
2023-01-29T08:10:01.895Z,102650.00
2023-01-29T08:12:28.385Z,102640.13
2023-01-29T08:14:54.834Z,102647.28
2023-01-29T08:17:21.262Z,102634.75
2023-01-29T08:19:47.728Z,102637.38
2023-01-29T08:22:16.431Z,102636.50
2023-01-29T08:24:54.171Z,102638.22
2023-01-29T08:27:26.677Z,102625.78
2023-01-29T08:29:53.124Z,102627.56
2023-01-29T08:32:19.538Z,102624.00
2023-01-29T08:34:45.980Z,102628.53
2023-01-29T08:37:12.410Z,102622.34
2023-01-29T08:39:38.854Z,102629.44
2023-01-29T08:42:05.367Z,102625.88
2023-01-29T08:44:31.768Z,102628.56
2023-01-29T08:46:58.270Z,102624.06
2023-01-29T08:49:24.864Z,102628.53
2023-01-29T08:51:54.690Z,102629.31
2023-01-29T08:54:21.086Z,102627.56
2023-01-29T08:56:47.544Z,102620.38
2023-01-29T08:59:14.234Z,102624.03
2023-01-29T09:01:40.654Z,102620.50
2023-01-29T09:04:07.431Z,102624.03
2023-01-29T09:06:34.031Z,102613.34
2023-01-29T09:09:00.514Z,102617.84
2023-01-29T09:11:26.934Z,102603.63
2023-01-29T09:13:53.402Z,102606.34
2023-01-29T09:16:19.889Z,102614.47
2023-01-29T09:18:46.412Z,102596.63
2023-01-29T09:21:12.929Z,102594.88
2023-01-29T09:23:39.447Z,102597.66
2023-01-29T09:26:08.042Z,102588.78
2023-01-29T09:28:34.722Z,102593.22
2023-01-29T09:31:02.911Z,102578.91
2023-01-29T09:33:30.899Z,102581.47
2023-01-29T09:35:57.342Z,102572.38
2023-01-29T09:38:23.718Z,102575.72
2023-01-29T09:41:17.591Z,102566.72
2023-01-29T09:43:55.157Z,102563.06
2023-01-29T09:46:39.913Z,102569.28
2023-01-29T09:49:21.281Z,102565.63
2023-01-29T09:51:58.355Z,102569.06
2023-01-29T09:54:30.857Z,102572.47
2023-01-29T09:56:58.107Z,102569.69
2023-01-29T09:59:27.544Z,102567.84
2023-01-29T10:02:19.318Z,102566.88
2023-01-29T10:05:07.375Z,102574.78
2023-01-29T10:07:56.451Z,102570.28
2023-01-29T10:10:27.028Z,102570.50
2023-01-29T10:13:25.869Z,102576.84
2023-01-29T10:16:21.886Z,102576.13
2023-01-29T10:19:16.893Z,102554.78
2023-01-29T10:22:12.863Z,102564.56
2023-01-29T10:24:53.014Z,102554.66
2023-01-29T10:27:20.137Z,102557.09
2023-01-29T10:29:51.045Z,102560.78
2023-01-29T10:32:25.169Z,102548.28
2023-01-29T10:34:56.724Z,102556.28
2023-01-29T10:37:28.564Z,102550.00
2023-01-29T10:39:54.963Z,102534.81
2023-01-29T10:42:30.085Z,102542.75
2023-01-29T10:45:20.172Z,102523.88
2023-01-29T10:48:04.333Z,102535.41
2023-01-29T10:50:52.486Z,102523.81
2023-01-29T10:53:37.586Z,102518.50
2023-01-29T10:56:23.668Z,102520.28
2023-01-29T10:59:05.408Z,102513.09
2023-01-29T11:01:31.893Z,102511.38
2023-01-29T11:04:03.507Z,102507.78
2023-01-29T11:06:35.381Z,102505.16
2023-01-29T11:09:13.833Z,102499.72
2023-01-29T11:11:49.578Z,102493.47
2023-01-29T11:14:26.761Z,102500.66
2023-01-29T11:16:53.359Z,102490.91
2023-01-29T11:19:37.811Z,102478.38
2023-01-29T11:22:04.420Z,102480.19
2023-01-29T11:24:30.950Z,102481.91
2023-01-29T11:26:59.842Z,102469.50
2023-01-29T11:29:38.283Z,102471.41
2023-01-29T11:32:08.539Z,102465.22
2023-01-29T11:34:35.232Z,102460.66
2023-01-29T11:37:04.516Z,102454.50
2023-01-29T11:39:32.227Z,102454.53
2023-01-29T11:42:01.379Z,102448.31
2023-01-29T11:44:38.452Z,102446.56
2023-01-29T11:47:25.601Z,102443.88
2023-01-29T11:49:57.983Z,102437.66
2023-01-29T11:52:37.146Z,102444.00
2023-01-29T11:55:16.599Z,102437.78
2023-01-29T11:57:48.456Z,102431.53
2023-01-29T12:00:24.117Z,102421.72
2023-01-29T12:03:03.026Z,102424.38
2023-01-29T12:05:29.552Z,102410.06
2023-01-29T12:08:02.224Z,102409.28
2023-01-29T12:10:39.464Z,102401.16
2023-01-29T12:13:20.075Z,102402.03
2023-01-29T12:15:48.498Z,102396.72
2023-01-29T12:18:30.224Z,102404.78
2023-01-29T12:21:10.263Z,102387.69
2023-01-29T12:23:41.879Z,102376.75
2023-01-29T12:26:19.422Z,102368.75
2023-01-29T12:29:06.005Z,102352.72
2023-01-29T12:31:46.849Z,102357.16
2023-01-29T12:34:24.716Z,102339.25
2023-01-29T12:37:13.739Z,102333.88
2023-01-29T12:39:40.244Z,102330.28
2023-01-29T12:42:17.917Z,102323.22
2023-01-29T12:44:52.749Z,102322.41
2023-01-29T12:47:33.610Z,102304.63
2023-01-29T12:50:08.149Z,102301.09
2023-01-29T12:52:37.708Z,102293.03
2023-01-29T12:55:15.306Z,102292.09
2023-01-29T12:57:48.624Z,102279.50
2023-01-29T13:00:20.433Z,102269.47
2023-01-29T13:03:21.057Z,102261.16
2023-01-29T13:05:51.915Z,102257.59
2023-01-29T13:08:23.402Z,102260.97
2023-01-29T13:10:52.844Z,102244.72
2023-01-29T13:13:54.060Z,102241.03
2023-01-29T13:16:25.750Z,102239.94
2023-01-29T13:18:59.252Z,102241.53
2023-01-29T13:21:30.535Z,102242.38
2023-01-29T13:24:02.244Z,102239.53
2023-01-29T13:26:28.986Z,102231.56
2023-01-29T13:28:55.483Z,102235.03
2023-01-29T13:31:27.739Z,102225.09
2023-01-29T13:34:22.976Z,102225.06
2023-01-29T13:36:55.880Z,102231.28
2023-01-29T13:39:28.773Z,102220.66
2023-01-29T13:41:56.991Z,102224.44
2023-01-29T13:44:29.548Z,102211.94
2023-01-29T13:46:57.813Z,102218.97
2023-01-29T13:49:35.021Z,102212.78
2023-01-29T13:52:26.001Z,102203.94
2023-01-29T13:55:17.974Z,102200.47
2023-01-29T13:57:44.657Z,102190.41
2023-01-29T14:00:24.979Z,102183.84
2023-01-29T14:03:00.323Z,102186.50
2023-01-29T14:05:29.800Z,102178.34
2023-01-29T14:08:05.888Z,102176.78
2023-01-29T14:10:37.574Z,102178.88
2023-01-29T14:13:03.916Z,102174.31
2023-01-29T14:15:35.750Z,102171.47
2023-01-29T14:18:08.215Z,102163.41
2023-01-29T14:20:48.732Z,102170.47
2023-01-29T14:23:36.196Z,102160.75
2023-01-29T14:26:18.519Z,102152.75
2023-01-29T14:29:18.825Z,102151.22
2023-01-29T14:31:57.875Z,102147.81
2023-01-29T14:34:31.401Z,102150.28
2023-01-29T14:37:01.498Z,102137.81
2023-01-29T14:39:41.570Z,102138.72
2023-01-29T14:42:56.631Z,102125.38
2023-01-29T14:45:29.475Z,102133.44
2023-01-29T14:47:57.381Z,102131.69
2023-01-29T14:50:31.640Z,102128.00
2023-01-29T14:53:23.172Z,102121.00
2023-01-29T14:56:11.034Z,102122.81
2023-01-29T14:58:42.367Z,102121.25
2023-01-29T15:01:23.311Z,102110.63
2023-01-29T15:03:57.672Z,102120.50
2023-01-29T15:06:34.047Z,102111.66
2023-01-29T15:09:09.756Z,102108.94
2023-01-29T15:11:47.188Z,102108.84
2023-01-29T15:14:24.004Z,102114.94
2023-01-29T15:17:09.010Z,102114.09
2023-01-29T15:19:44.632Z,102128.19
2023-01-29T15:22:16.346Z,102124.56
2023-01-29T15:24:44.508Z,102112.06
2023-01-29T15:27:20.273Z,102111.94
2023-01-29T15:30:01.875Z,102098.50
2023-01-29T15:32:35.114Z,102100.19
2023-01-29T15:35:08.300Z,102099.31
2023-01-29T15:37:36.092Z,102096.63
2023-01-29T15:40:06.874Z,102097.47
2023-01-29T15:42:46.588Z,102086.66
2023-01-29T15:45:32.024Z,102090.09
2023-01-29T15:48:05.985Z,102088.25
2023-01-29T15:50:36.514Z,102084.69
2023-01-29T15:53:07.546Z,102071.31
2023-01-29T15:55:35.731Z,102090.94
2023-01-29T15:58:02.456Z,102073.25
2023-01-29T16:00:30.158Z,102072.41
2023-01-29T16:02:58.018Z,102075.94
2023-01-29T16:05:28.748Z,102067.13
2023-01-29T16:07:56.886Z,102076.09
2023-01-29T16:10:29.172Z,102081.28
2023-01-29T16:12:56.516Z,102083.31
2023-01-29T16:15:40.231Z,102076.28
2023-01-29T16:18:36.488Z,102080.91
2023-01-29T16:21:15.900Z,102071.22
2023-01-29T16:23:55.256Z,102076.81
2023-01-29T16:26:34.850Z,102067.19
2023-01-29T16:29:10.862Z,102066.19
2023-01-29T16:31:38.631Z,102063.72
2023-01-29T16:34:27.556Z,102070.66
2023-01-29T16:36:55.333Z,102066.88
2023-01-29T16:39:34.111Z,102056.09
2023-01-29T16:42:10.039Z,102049.59
2023-01-29T16:44:39.107Z,102054.16
2023-01-29T16:47:23.567Z,102055.28
2023-01-29T16:49:53.439Z,102058.72
2023-01-29T16:52:33.964Z,102044.56
2023-01-29T16:55:15.896Z,102039.22
2023-01-29T16:57:47.613Z,102043.59
2023-01-29T17:00:22.408Z,102044.56
2023-01-29T17:02:52.398Z,102034.00
2023-01-29T17:05:38.404Z,102033.88
2023-01-29T17:08:06.132Z,102018.66
2023-01-29T17:10:33.836Z,102019.50
2023-01-29T17:13:05.208Z,102026.81
2023-01-29T17:15:43.571Z,102019.50
2023-01-29T17:18:20.448Z,102018.47
2023-01-29T17:20:47.375Z,102006.63
2023-01-29T17:23:14.314Z,101990.41
2023-01-29T17:25:41.087Z,101994.28
2023-01-29T17:28:07.887Z,101990.75
2023-01-29T17:30:37.164Z,101998.84
2023-01-29T17:33:17.755Z,101999.72
2023-01-29T17:35:45.303Z,101991.97
2023-01-29T17:38:25.638Z,101987.50
2023-01-29T17:41:00.047Z,101978.59
2023-01-29T17:43:26.600Z,101979.47
2023-01-29T17:45:53.210Z,101978.25
2023-01-29T17:48:23.096Z,101978.25
2023-01-29T17:50:53.335Z,101961.09
2023-01-29T17:53:21.226Z,101955.22
2023-01-29T17:55:47.794Z,101939.31
2023-01-29T17:58:23.213Z,101943.19
2023-01-29T18:00:50.039Z,101938.75
2023-01-29T18:03:17.285Z,101936.22
2023-01-29T18:05:45.824Z,101915.69
2023-01-29T18:08:33.900Z,101911.16
2023-01-29T18:11:00.729Z,101912.09
2023-01-29T18:13:27.949Z,101914.78
2023-01-29T18:15:54.563Z,101916.59
2023-01-29T18:18:23.560Z,101921.00
2023-01-29T18:20:50.807Z,101918.22
2023-01-29T18:23:17.288Z,101904.66
2023-01-29T18:25:44.749Z,101898.44
2023-01-29T18:28:19.277Z,101906.69
2023-01-29T18:30:47.315Z,101895.88
2023-01-29T18:33:15.324Z,101904.91
2023-01-29T18:35:44.099Z,101915.59
2023-01-29T18:38:10.636Z,101928.66
2023-01-29T18:40:37.263Z,101920.41
2023-01-29T18:43:04.256Z,101909.72
2023-01-29T18:45:31.194Z,101907.03
2023-01-29T18:47:57.728Z,101903.28
2023-01-29T18:50:26.119Z,101893.38
2023-01-29T18:52:53.989Z,101884.56
2023-01-29T18:55:20.907Z,101871.56
2023-01-29T18:58:28.876Z,101864.50
2023-01-29T19:00:33.701Z,101864.66
2023-01-29T19:03:00.708Z,101868.97
2023-01-29T19:05:27.190Z,101884.75
2023-01-29T19:07:53.697Z,101904.97
2023-01-29T19:10:20.099Z,101894.13
2023-01-29T19:12:46.574Z,101887.56
2023-01-29T19:15:12.987Z,101887.56
2023-01-29T19:17:39.432Z,101892.03
2023-01-29T19:20:06.505Z,101883.72
2023-01-29T19:22:33.107Z,101878.16
2023-01-29T19:24:59.548Z,101886.03
2023-01-29T19:27:30.204Z,101881.66
2023-01-29T19:29:58.123Z,101868.41
2023-01-29T19:32:24.600Z,101870.06
2023-01-29T19:34:51.498Z,101865.75
2023-01-29T19:37:17.876Z,101857.28
2023-01-29T19:39:44.243Z,101839.59
2023-01-29T19:42:10.756Z,101836.28
2023-01-29T19:44:38.910Z,101862.06
2023-01-29T19:47:05.813Z,101850.53
2023-01-29T19:49:33.987Z,101861.00
2023-01-29T19:52:01.727Z,101864.44
2023-01-29T19:54:29.545Z,101863.47
2023-01-29T19:56:56.643Z,101860.81
2023-01-29T19:59:23.079Z,101855.63
2023-01-29T20:01:49.540Z,101848.41
2023-01-29T20:04:15.993Z,101851.84
2023-01-29T20:06:42.549Z,101861.63
2023-01-29T20:09:09.012Z,101848.13
2023-01-29T20:11:35.449Z,101838.84
2023-01-29T20:14:01.949Z,101825.22
2023-01-29T20:16:28.432Z,101820.50
2023-01-29T20:18:54.911Z,101813.28
2023-01-29T20:21:40.926Z,101819.47
2023-01-29T20:24:12.092Z,101814.94
2023-01-29T20:26:39.089Z,101829.50
2023-01-29T20:29:06.414Z,101827.44
2023-01-29T20:31:33.527Z,101821.84
2023-01-29T20:34:00.005Z,101816.75
2023-01-29T20:36:26.393Z,101816.50
2023-01-29T20:38:52.850Z,101822.47
2023-01-29T20:41:19.911Z,101812.69
2023-01-29T20:43:47.274Z,101825.19
2023-01-29T20:46:14.025Z,101825.41
2023-01-29T20:48:42.087Z,101819.69
2023-01-29T20:51:15.667Z,101825.16
2023-01-29T20:53:45.107Z,101811.97
2023-01-29T20:56:13.310Z,101811.72
2023-01-29T20:58:41.039Z,101806.56
2023-01-29T21:01:12.194Z,101799.28
2023-01-29T21:03:39.660Z,101787.56
2023-01-29T21:06:07.188Z,101758.06
2023-01-29T21:08:35.261Z,101746.44
2023-01-29T21:11:06.709Z,101749.22
2023-01-29T21:13:33.431Z,101726.03
2023-01-29T21:16:00.375Z,101737.06
2023-01-29T21:18:26.856Z,101711.16
2023-01-29T21:20:54.252Z,101711.16
2023-01-29T21:23:21.664Z,101713.09
2023-01-29T21:25:48.108Z,101698.00
2023-01-29T21:28:15.506Z,101706.22
2023-01-29T21:30:41.955Z,101686.56
2023-01-29T21:33:08.352Z,101682.97
2023-01-29T21:35:36.940Z,101674.31
2023-01-29T21:38:03.935Z,101688.56
2023-01-29T21:40:30.513Z,101697.66
2023-01-29T21:43:17.257Z,101674.34
2023-01-29T21:45:44.140Z,101677.81
2023-01-29T21:48:11.826Z,101691.94
2023-01-29T21:50:38.616Z,101694.34
2023-01-29T21:53:05.111Z,101685.34
2023-01-29T21:55:32.507Z,101679.28
2023-01-29T21:58:00.145Z,101670.09
2023-01-29T22:00:26.593Z,101665.22
2023-01-29T22:02:53.424Z,101664.28
2023-01-29T22:05:20.527Z,101666.09
2023-01-29T22:07:48.416Z,101666.97
2023-01-29T22:10:17.191Z,101648.94
2023-01-29T22:12:44.681Z,101628.38
2023-01-29T22:15:12.276Z,101609.66
2023-01-29T22:17:41.267Z,101614.03
2023-01-29T22:20:12.504Z,101608.97
2023-01-29T22:22:39.175Z,101624.75
2023-01-29T22:25:06.044Z,101647.16
2023-01-29T22:27:33.770Z,101648.22
2023-01-29T22:30:00.338Z,101657.31
2023-01-29T22:32:26.820Z,101658.25
2023-01-29T22:34:53.404Z,101651.72
2023-01-29T22:37:19.822Z,101655.41
2023-01-29T22:39:46.234Z,101652.66
2023-01-29T22:42:12.629Z,101652.50
2023-01-29T22:44:39.084Z,101652.06
2023-01-29T22:47:05.492Z,101655.22
2023-01-29T22:49:32.162Z,101650.75
2023-01-29T22:52:09.986Z,101637.28
2023-01-29T22:54:41.029Z,101638.25
2023-01-29T22:57:10.276Z,101622.22
2023-01-29T22:59:36.849Z,101604.75
2023-01-29T23:02:03.946Z,101610.94
2023-01-29T23:04:30.556Z,101610.31
2023-01-29T23:06:57.078Z,101600.34
2023-01-29T23:09:23.649Z,101620.03
2023-01-29T23:11:50.238Z,101610.22
2023-01-29T23:14:16.699Z,101613.91
2023-01-29T23:16:43.179Z,101620.72
2023-01-29T23:19:10.993Z,101605.34
2023-01-29T23:21:37.967Z,101595.28
2023-01-29T23:24:05.830Z,101589.78
2023-01-29T23:26:50.727Z,101598.66
2023-01-29T23:29:17.167Z,101607.34
2023-01-29T23:31:43.636Z,101603.75
2023-01-29T23:34:10.140Z,101613.38
2023-01-29T23:36:36.560Z,101598.13
2023-01-29T23:39:03.007Z,101594.41
2023-01-29T23:41:29.439Z,101584.56
2023-01-29T23:43:55.968Z,101585.56
2023-01-29T23:46:22.818Z,101584.44
2023-01-29T23:48:49.222Z,101574.44
2023-01-29T23:51:15.676Z,101566.53
2023-01-29T23:53:42.296Z,101556.91
2023-01-29T23:56:10.537Z,101549.47
2023-01-29T23:58:36.980Z,101551.44
